Time;durP1;ratioP1;P1;durP2;ratioP2;P2;SDS_P1;SDS_P2;PMS_P1;PMS_P2;Temp;Humidity;BMP_temperature;BMP_pressure;BME280_temperature;BME280_humidity;BME280_pressure;Samples;Min_cycle;Max_cycle;Signal;HPM_P1;HPM_P2
2023/09/12 00:02:00;;;;;;;32.22;28.67;;;;;;;17.99;100.00;101219.69;6162144;23;20087;-69
2023/09/12 00:04:25;;;;;;;30.65;27.33;;;;;;;17.98;100.00;101225.03;6162102;23;20099;-69
2023/09/12 00:06:51;;;;;;;32.05;28.70;;;;;;;17.97;100.00;101229.50;6160440;23;20091;-69
2023/09/12 00:09:16;;;;;;;31.88;28.30;;;;;;;17.97;100.00;101244.50;6187260;23;20377;-69
2023/09/12 00:11:42;;;;;;;33.17;28.88;;;;;;;17.94;100.00;101237.56;6136864;23;20008;-69
2023/09/12 00:14:09;;;;;;;37.03;28.75;;;;;;;17.90;100.00;101246.53;6162627;23;20034;-69
2023/09/12 00:16:34;;;;;;;31.42;28.10;;;;;;;17.90;100.00;101243.88;6186356;23;20004;-70
2023/09/12 00:19:00;;;;;;;32.40;29.08;;;;;;;17.94;100.00;101242.84;6187047;23;20020;-70
2023/09/12 00:21:25;;;;;;;33.05;29.13;;;;;;;17.90;100.00;101235.94;6137361;23;20016;-70
2023/09/12 00:23:51;;;;;;;33.08;29.67;;;;;;;17.91;100.00;101239.44;6162806;23;20397;-70
2023/09/12 00:26:16;;;;;;;31.95;28.75;;;;;;;17.90;100.00;101235.94;6137525;23;20035;-70
2023/09/12 00:28:42;;;;;;;33.53;30.02;;;;;;;17.88;100.00;101244.81;6162462;23;20062;-71
2023/09/12 00:31:07;;;;;;;31.55;28.25;;;;;;;17.91;100.00;101240.28;6136886;23;20103;-70
2023/09/12 00:33:33;;;;;;;31.45;27.92;;;;;;;17.89;100.00;101238.59;6162420;23;20012;-70
2023/09/12 00:35:58;;;;;;;31.55;28.17;;;;;;;17.90;100.00;101238.59;6162310;23;20044;-71
2023/09/12 00:38:24;;;;;;;31.17;27.90;;;;;;;17.91;100.00;101242.94;6162113;23;20005;-71
2023/09/12 00:40:49;;;;;;;30.15;26.92;;;;;;;17.88;100.00;101237.72;6185825;23;20395;-71
2023/09/12 00:43:16;;;;;;;30.17;26.88;;;;;;;17.86;100.00;101242.22;6137410;23;20016;-70
2023/09/12 00:45:42;;;;;;;28.95;25.75;;;;;;;17.73;100.00;101239.16;6186056;23;20012;-70
2023/09/12 00:48:09;;;;;;;29.92;26.95;;;;;;;17.75;100.00;101241.75;6162353;23;20062;-71
2023/09/12 00:50:35;;;;;;;28.98;26.10;;;;;;;17.69;100.00;101234.00;6161921;23;20024;-71
2023/09/12 00:53:03;;;;;;;29.08;25.73;;;;;;;17.63;100.00;101227.16;6137912;23;20012;-71
2023/09/12 00:55:31;;;;;;;28.45;25.65;;;;;;;17.69;100.00;101229.56;6159771;23;20439;-70
2023/09/12 00:57:57;;;;;;;28.90;25.55;;;;;;;17.66;100.00;101224.38;6186171;23;20001;-70
2023/09/12 01:00:23;;;;;;;25.63;23.10;;;;;;;17.58;100.00;101223.78;6137549;23;20019;-70
2023/09/12 01:02:49;;;;;;;23.77;21.48;;;;;;;17.41;100.00;101213.75;6137260;23;20012;-71
2023/09/12 01:05:16;;;;;;;86.45;24.48;;;;;;;17.31;100.00;101221.16;6162303;23;20454;-70
2023/09/12 01:07:43;;;;;;;68.60;27.20;;;;;;;17.28;100.00;101216.84;6137015;23;20082;-71
2023/09/12 01:10:09;;;;;;;26.55;23.80;;;;;;;17.36;100.00;101218.38;6162586;23;20032;-71
2023/09/12 01:12:36;;;;;;;28.27;24.20;;;;;;;17.42;100.00;101215.50;6160694;23;20012;-71
2023/09/12 01:15:04;;;;;;;28.70;25.73;;;;;;;17.49;100.00;101220.53;6187267;23;20008;-71
2023/09/12 01:17:30;;;;;;;28.70;25.70;;;;;;;17.56;100.00;101218.53;6161670;23;20028;-71
2023/09/12 01:19:56;;;;;;;30.80;27.60;;;;;;;17.54;100.00;101212.44;6137889;23;20059;-69
2023/09/12 01:22:38;;;;;;;28.40;25.55;;;;;;;17.58;100.00;101211.38;6139079;23;20023;-68
2023/09/12 01:25:38;;;;;;;29.17;26.35;;;;;;;17.59;100.00;101209.63;6186651;23;20091;-68
2023/09/12 01:28:07;;;;;;;32.30;28.73;;;;;;;17.50;100.00;101210.81;6187981;23;20450;-68
2023/09/12 01:30:35;;;;;;;30.70;27.45;;;;;;;17.50;100.00;101216.09;6187806;23;20000;-69
2023/09/12 01:33:03;;;;;;;28.70;25.70;;;;;;;17.47;100.00;101211.78;6215208;23;20059;-69
2023/09/12 01:35:28;;;;;;;29.92;26.77;;;;;;;17.47;100.00;101208.28;6187967;23;20001;-69
2023/09/12 01:37:54;;;;;;;29.17;24.27;;;;;;;17.54;100.00;101212.44;6162231;23;20015;-69
2023/09/12 01:40:33;;;;;;;27.27;24.33;;;;;;;17.43;100.00;101206.66;6214720;23;20079;-68
2023/09/12 01:43:00;;;;;;;28.98;25.70;;;;;;;17.39;100.00;101207.66;6188079;23;20379;-69
2023/09/12 01:45:26;;;;;;;28.38;25.52;;;;;;;17.33;100.00;101205.22;6187786;23;20087;-68
2023/09/12 01:47:53;;;;;;;30.10;24.80;;;;;;;17.28;100.00;101202.72;6138211;23;20051;-69
2023/09/12 01:50:20;;;;;;;294.65;32.90;;;;;;;17.15;100.00;101199.63;6162928;23;20036;-69
2023/09/12 01:52:46;;;;;;;258.05;35.90;;;;;;;17.16;100.00;101204.00;6162871;23;20012;-69
2023/09/12 01:55:12;;;;;;;188.95;38.45;;;;;;;17.10;100.00;101198.94;6162879;23;20016;-69
2023/09/12 01:57:38;;;;;;;354.25;41.58;;;;;;;17.06;100.00;101199.94;6161246;23;20005;-70
2023/09/12 02:00:04;;;;;;;29.48;26.50;;;;;;;17.10;100.00;101197.13;6163932;23;20009;-70
2023/09/12 02:02:30;;;;;;;28.20;25.30;;;;;;;17.12;100.00;101194.44;6161697;23;20023;-71
2023/09/12 02:05:11;;;;;;;27.13;24.33;;;;;;;17.11;100.00;101195.34;6162845;23;20016;-71
2023/09/12 02:07:38;;;;;;;24.63;22.05;;;;;;;17.06;100.00;101194.66;6187243;23;20054;-71
2023/09/12 02:10:04;;;;;;;33.55;24.38;;;;;;;17.04;100.00;101200.00;6188039;23;20430;-71
2023/09/12 02:12:31;;;;;;;25.15;22.58;;;;;;;17.07;100.00;101201.69;6187178;23;20017;-71
2023/09/12 02:14:56;;;;;;;21.10;19.15;;;;;;;16.99;100.00;101195.75;6162890;23;20016;-71
2023/09/12 02:17:22;;;;;;;26.30;23.70;;;;;;;17.08;100.00;101190.16;6162061;23;20034;-71
2023/09/12 02:19:48;;;;;;;25.17;22.65;;;;;;;17.03;100.00;101192.94;6187194;23;20395;-71
2023/09/12 02:22:13;;;;;;;26.38;23.70;;;;;;;17.06;100.00;101181.41;6162816;23;20016;-71
2023/09/12 02:24:39;;;;;;;28.23;25.52;;;;;;;17.06;100.00;101192.00;6138420;23;20084;-71
2023/09/12 02:27:04;;;;;;;28.13;25.00;;;;;;;17.00;100.00;101198.34;6137450;23;20018;-71
2023/09/12 02:29:32;;;;;;;31.67;28.58;;;;;;;17.01;100.00;101204.50;6163364;23;20054;-70
2023/09/12 02:31:57;;;;;;;44.08;24.20;;;;;;;16.72;100.00;101201.88;6138109;23;20023;-71
2023/09/12 02:34:23;;;;;;;26.08;23.50;;;;;;;16.73;100.00;101211.53;6138510;23;20036;-71
2023/09/12 02:36:49;;;;;;;23.70;21.35;;;;;;;16.79;100.00;101208.69;6187229;23;20004;-71
2023/09/12 02:39:15;;;;;;;24.35;22.00;;;;;;;16.76;100.00;101208.78;6137680;23;20469;-71
2023/09/12 02:41:40;;;;;;;23.88;21.48;;;;;;;16.70;100.00;101206.34;6136166;23;20012;-70
2023/09/12 02:44:06;;;;;;;19.00;17.17;;;;;;;16.65;100.00;101213.56;6187405;23;20004;-70
2023/09/12 02:46:33;;;;;;;32.45;21.00;;;;;;;16.56;100.00;101214.69;6162689;23;20031;-71
2023/09/12 02:48:58;;;;;;;56.58;22.25;;;;;;;16.51;100.00;101213.97;6187556;23;20089;-71
2023/09/12 02:51:25;;;;;;;23.35;20.88;;;;;;;16.52;100.00;101218.38;6137927;23;20012;-71
2023/09/12 02:53:51;;;;;;;105.68;25.17;;;;;;;16.49;100.00;101214.94;6186820;23;20045;-71
2023/09/12 02:56:16;;;;;;;52.22;22.27;;;;;;;16.55;100.00;101214.75;6161232;23;20438;-70
2023/09/12 02:58:42;;;;;;;95.88;29.45;;;;;;;16.49;100.00;101207.00;6137753;23;20430;-70
2023/09/12 03:01:07;;;;;;;63.83;26.20;;;;;;;16.49;100.00;101214.94;6137446;23;20023;-70
2023/09/12 03:03:33;;;;;;;172.77;36.50;;;;;;;16.49;100.00;101207.84;6162982;23;20028;-71
2023/09/12 03:05:59;;;;;;;88.57;31.90;;;;;;;16.50;100.00;101206.94;6136837;23;20040;-71
2023/09/12 03:08:25;;;;;;;38.65;27.98;;;;;;;16.49;100.00;101213.16;6186057;23;20013;-71
2023/09/12 03:10:57;;;;;;;30.70;27.48;;;;;;;16.50;100.00;101212.25;6160990;23;20008;-70
2023/09/12 03:13:26;;;;;;;33.65;27.73;;;;;;;16.43;100.00;101213.34;6138063;23;20032;-71
2023/09/12 03:15:52;;;;;;;35.47;26.05;;;;;;;16.40;100.00;101210.78;6160929;23;20023;-70
2023/09/12 03:18:18;;;;;;;56.08;30.85;;;;;;;16.43;100.00;101223.91;6187505;23;20007;-70
2023/09/12 03:20:43;;;;;;;43.65;30.27;;;;;;;16.44;100.00;101218.56;6161962;23;20012;-70
2023/09/12 03:23:09;;;;;;;121.05;27.38;;;;;;;16.25;100.00;101212.97;6137703;23;20009;-70
2023/09/12 03:25:38;;;;;;;24.52;21.92;;;;;;;16.30;100.00;101206.69;6136518;23;20004;-70
2023/09/12 03:28:07;;;;;;;27.47;22.10;;;;;;;16.19;100.00;101196.41;6186580;23;20004;-70
2023/09/12 03:30:34;;;;;;;174.63;26.00;;;;;;;15.99;100.00;101195.25;6186946;23;20004;-71
2023/09/12 03:32:59;;;;;;;373.77;44.55;;;;;;;16.08;100.00;101187.03;6161478;23;20008;-71
2023/09/12 03:35:25;;;;;;;28.40;25.23;;;;;;;16.15;100.00;101186.84;6137740;23;20122;-70
2023/09/12 03:37:51;;;;;;;25.52;22.77;;;;;;;16.12;100.00;101179.91;6160891;23;20454;-70
2023/09/12 03:40:16;;;;;;;23.83;21.48;;;;;;;16.14;100.00;101185.13;6161686;23;20009;-70
2023/09/12 03:42:41;;;;;;;25.30;22.77;;;;;;;16.15;100.00;101185.09;6186237;23;20084;-70
2023/09/12 03:45:08;;;;;;;27.00;24.27;;;;;;;16.13;100.00;101180.75;6186471;23;20012;-70
2023/09/12 03:47:33;;;;;;;28.23;22.75;;;;;;;16.13;100.00;101176.31;6161092;23;20012;-70
2023/09/12 03:49:59;;;;;;;54.42;23.58;;;;;;;16.11;100.00;101175.50;6135709;23;20009;-70
2023/09/12 03:52:24;;;;;;;24.98;22.60;;;;;;;16.17;100.00;101170.03;6137355;23;20015;-70
2023/09/12 03:54:49;;;;;;;30.65;27.55;;;;;;;16.20;100.00;101177.88;6160937;23;20095;-70
2023/09/12 03:57:15;;;;;;;25.10;22.58;;;;;;;16.06;100.00;101183.59;6136393;23;20009;-70
2023/09/12 03:59:41;;;;;;;35.45;21.15;;;;;;;16.06;100.00;101177.41;6137062;23;20095;-70
2023/09/12 04:02:06;;;;;;;42.42;23.98;;;;;;;16.04;100.00;101181.88;6160186;23;20016;-70
2023/09/12 04:04:32;;;;;;;314.75;29.60;;;;;;;15.87;100.00;101185.88;6137679;23;20014;-70
2023/09/12 04:06:58;;;;;;;108.60;23.38;;;;;;;15.92;100.00;101183.97;6186299;23;20104;-70
2023/09/12 04:09:24;;;;;;;74.03;23.58;;;;;;;15.81;100.00;101179.91;6136915;23;20446;-70
2023/09/12 04:11:49;;;;;;;151.68;26.85;;;;;;;15.85;100.00;101182.41;6136429;23;20012;-70
2023/09/12 04:14:14;;;;;;;21.30;19.10;;;;;;;15.92;100.00;101176.03;6191171;23;20020;-70
2023/09/12 04:16:40;;;;;;;20.90;17.40;;;;;;;15.88;100.00;101169.09;6243365;22;20007;-70
2023/09/12 04:19:05;;;;;;;22.63;20.27;;;;;;;15.97;100.00;101165.34;6197349;22;20019;-70
2023/09/12 04:21:31;;;;;;;34.78;24.33;;;;;;;16.02;100.00;101178.41;6221877;22;20429;-70
2023/09/12 04:23:56;;;;;;;23.90;21.40;;;;;;;16.04;100.00;101176.59;6247549;22;20004;-70
2023/09/12 04:26:22;;;;;;;22.45;20.25;;;;;;;16.06;100.00;101174.75;6221333;22;20106;-70
2023/09/12 04:28:47;;;;;;;23.05;20.67;;;;;;;16.13;100.00;101165.75;6247309;22;20023;-70
2023/09/12 04:31:13;;;;;;;26.00;23.40;;;;;;;16.25;100.00;101178.59;6221824;22;20003;-69
2023/09/12 04:33:38;;;;;;;24.23;20.08;;;;;;;16.06;100.00;101174.75;6222719;22;20396;-70
2023/09/12 04:36:04;;;;;;;26.60;18.45;;;;;;;16.08;100.00;101172.97;6196732;22;20012;-70
2023/09/12 04:38:30;;;;;;;18.92;17.23;;;;;;;16.11;100.00;101179.00;6196576;22;20087;-70
2023/09/12 04:41:04;;;;;;;19.65;17.85;;;;;;;16.15;100.00;101179.81;6246360;22;20034;-70
2023/09/12 04:43:32;;;;;;;22.50;20.30;;;;;;;16.18;100.00;101182.34;6247549;22;20003;-70
2023/09/12 04:45:58;;;;;;;26.52;23.83;;;;;;;16.20;100.00;101187.59;6196237;22;20019;-70
2023/09/12 04:48:24;;;;;;;28.00;25.40;;;;;;;16.31;100.00;101190.78;6246249;22;20050;-69
2023/09/12 04:50:49;;;;;;;29.88;26.88;;;;;;;16.32;100.00;101202.22;6246236;22;20362;-69
2023/09/12 04:53:15;;;;;;;29.55;26.48;;;;;;;16.35;100.00;101192.44;6222398;22;20144;-69
2023/09/12 04:55:40;;;;;;;29.85;26.88;;;;;;;16.33;100.00;101191.59;6246467;22;20015;-69
2023/09/12 04:58:07;;;;;;;25.48;22.88;;;;;;;16.32;100.00;101191.63;6198482;22;20008;-69
2023/09/12 05:00:33;;;;;;;33.55;23.92;;;;;;;16.18;100.00;101184.13;6248062;22;20022;-69
2023/09/12 05:02:59;;;;;;;29.58;25.40;;;;;;;16.15;100.00;101185.09;6222788;22;20034;-69
2023/09/12 05:05:24;;;;;;;29.42;26.48;;;;;;;16.24;100.00;101205.94;6249389;22;20031;-69
2023/09/12 05:07:53;;;;;;;29.27;26.08;;;;;;;16.28;100.00;101201.47;6198839;22;20091;-69
2023/09/12 05:10:19;;;;;;;26.48;23.58;;;;;;;16.34;100.00;101203.91;6249210;22;20011;-70
2023/09/12 05:12:44;;;;;;;27.55;24.48;;;;;;;16.33;100.00;101194.22;6223360;22;20014;-70
2023/09/12 05:15:10;;;;;;;29.08;26.02;;;;;;;16.33;100.00;101196.03;6249742;22;20012;-70
2023/09/12 05:17:35;;;;;;;32.72;28.63;;;;;;;16.34;100.00;101205.69;6222061;22;20011;-70
2023/09/12 05:20:03;;;;;;;31.95;28.52;;;;;;;16.32;100.00;101210.16;6223792;22;20012;-70
2023/09/12 05:22:28;;;;;;;29.92;26.83;;;;;;;16.32;100.00;101200.47;6223972;22;20004;-70
2023/09/12 05:24:54;;;;;;;30.23;27.00;;;;;;;16.29;100.00;101211.09;6199019;22;20019;-70
2023/09/12 05:27:19;;;;;;;31.38;28.05;;;;;;;16.31;100.00;101211.09;6196666;22;20023;-70
2023/09/12 05:29:46;;;;;;;29.48;26.27;;;;;;;16.35;100.00;101204.75;6223222;22;20015;-70
2023/09/12 05:32:11;;;;;;;28.45;25.52;;;;;;;16.30;100.00;101204.06;6198408;22;20089;-70
2023/09/12 05:34:36;;;;;;;29.67;26.25;;;;;;;16.36;100.00;101198.56;6197976;22;20008;-70
2023/09/12 05:37:03;;;;;;;30.73;27.58;;;;;;;16.39;100.00;101185.25;6223567;22;20014;-70
2023/09/12 05:39:28;;;;;;;30.55;27.13;;;;;;;16.42;100.00;101183.38;6223936;22;20500;-70
2023/09/12 05:41:53;;;;;;;29.67;26.70;;;;;;;16.39;100.00;101188.78;6198051;22;20050;-69
2023/09/12 05:44:19;;;;;;;30.02;26.83;;;;;;;16.38;100.00;101186.19;6224132;22;20007;-69
2023/09/12 05:46:48;;;;;;;31.70;27.13;;;;;;;16.40;100.00;101193.13;6222540;22;20169;-69
2023/09/12 05:49:16;;;;;;;29.88;26.65;;;;;;;16.41;100.00;101202.81;6198670;22;20011;-69
2023/09/12 05:51:42;;;;;;;34.97;28.75;;;;;;;16.34;100.00;101195.97;6223148;22;20031;-69
2023/09/12 05:54:08;;;;;;;41.90;30.67;;;;;;;16.31;100.00;101200.50;6221577;22;20018;-68
2023/09/12 05:56:34;;;;;;;38.40;31.50;;;;;;;16.37;100.00;101205.59;6246969;22;20434;-68
2023/09/12 05:58:59;;;;;;;39.15;31.02;;;;;;;16.35;100.00;101192.44;6247909;22;20027;-68
2023/09/12 06:01:25;;;;;;;39.67;32.17;;;;;;;16.35;100.00;101203.00;6221922;22;20031;-69
2023/09/12 06:03:50;;;;;;;41.38;33.05;;;;;;;16.31;100.00;101192.56;6223311;22;20014;-69
2023/09/12 06:06:16;;;;;;;41.17;33.78;;;;;;;16.34;100.00;101208.34;6247019;22;20015;-68
2023/09/12 06:08:41;;;;;;;37.33;31.85;;;;;;;16.40;100.00;101203.72;6248284;22;20011;-68
2023/09/12 06:11:06;;;;;;;38.10;31.13;;;;;;;16.38;100.00;101202.06;6196152;22;20004;-68
2023/09/12 06:13:32;;;;;;;32.47;29.02;;;;;;;16.42;100.00;101193.97;6216774;22;20033;-68
2023/09/12 06:15:58;;;;;;;37.78;32.10;;;;;;;16.45;100.00;101203.59;6196813;22;20082;-69
2023/09/12 06:18:24;;;;;;;37.70;33.67;;;;;;;16.49;100.00;101210.50;6275415;22;20033;-68
2023/09/12 06:20:49;;;;;;;40.50;33.95;;;;;;;16.53;100.00;101201.56;6221963;22;20473;-69
2023/09/12 06:23:15;;;;;;;38.13;32.55;;;;;;;16.56;100.00;101204.09;6222863;22;20095;-68
2023/09/12 06:25:40;;;;;;;35.63;30.80;;;;;;;16.66;100.00;101215.28;6221637;22;20018;-68
2023/09/12 06:28:09;;;;;;;37.85;30.13;;;;;;;16.68;100.00;101212.56;6197344;22;20003;-68
2023/09/12 06:30:35;;;;;;;36.25;31.33;;;;;;;16.68;100.00;101204.63;6247950;22;20004;-68
2023/09/12 06:33:00;;;;;;;35.92;31.08;;;;;;;16.76;100.00;101203.47;6197717;22;20015;-69
2023/09/12 06:35:26;;;;;;;36.00;30.42;;;;;;;16.79;100.00;101202.53;6223235;22;20011;-68
2023/09/12 06:37:51;;;;;;;35.47;31.63;;;;;;;16.85;100.00;101210.28;6198279;22;20015;-69
2023/09/12 06:40:17;;;;;;;38.03;32.65;;;;;;;16.83;100.00;101213.91;6223334;22;20434;-68
2023/09/12 06:42:43;;;;;;;36.50;31.65;;;;;;;16.82;100.00;101205.06;6196777;22;20008;-68
2023/09/12 06:45:09;;;;;;;32.42;29.20;;;;;;;16.94;100.00;101210.00;6222734;22;20081;-68
2023/09/12 06:47:34;;;;;;;35.13;31.25;;;;;;;16.90;100.00;101216.31;6221776;22;20008;-68
2023/09/12 06:50:00;;;;;;;32.83;29.42;;;;;;;17.02;100.00;101214.19;6197661;22;20367;-69
2023/09/12 06:52:25;;;;;;;32.58;29.08;;;;;;;17.13;100.00;101231.44;6221887;22;20429;-68
2023/09/12 06:54:50;;;;;;;32.13;28.73;;;;;;;17.19;100.00;101235.69;6221070;22;20019;-68
2023/09/12 06:57:16;;;;;;;33.40;29.80;;;;;;;17.23;100.00;101224.06;6245852;22;20452;-69
2023/09/12 06:59:41;;;;;;;33.90;29.95;;;;;;;17.36;100.00;101229.81;6221955;22;20011;-68
2023/09/12 07:02:07;;;;;;;32.60;28.95;;;;;;;17.36;100.00;101231.63;6246079;22;20003;-68
2023/09/12 07:04:32;;;;;;;33.40;29.98;;;;;;;17.36;100.00;101239.56;6197978;22;20398;-69
2023/09/12 07:06:58;;;;;;;32.65;29.35;;;;;;;17.43;100.00;101235.78;6247662;22;20003;-68
2023/09/12 07:09:23;;;;;;;33.03;29.52;;;;;;;17.47;100.00;101237.41;6223088;22;20008;-68
2023/09/12 07:11:49;;;;;;;34.70;31.08;;;;;;;17.51;100.00;101243.47;6221922;22;20008;-68
2023/09/12 07:14:15;;;;;;;31.85;28.63;;;;;;;17.67;100.00;101237.56;6222732;22;20338;-68
2023/09/12 07:16:41;;;;;;;32.88;29.27;;;;;;;17.62;100.00;101236.00;6197454;22;20011;-68
2023/09/12 07:19:06;;;;;;;34.00;30.23;;;;;;;17.62;100.00;101244.81;6221728;22;20026;-68
2023/09/12 07:21:32;;;;;;;34.25;30.60;;;;;;;17.71;100.00;101242.75;6223043;22;20011;-68
2023/09/12 07:23:58;;;;;;;35.03;31.27;;;;;;;17.83;100.00;101234.38;6247291;22;20008;-68
2023/09/12 07:26:24;;;;;;;34.47;30.98;;;;;;;17.91;100.00;101247.38;6245337;22;20008;-68
2023/09/12 07:28:50;;;;;;;32.80;29.38;;;;;;;18.00;100.00;101242.63;6222590;22;20011;-68
2023/09/12 07:31:15;;;;;;;32.95;29.58;;;;;;;18.13;100.00;101247.47;6221824;22;20012;-69
2023/09/12 07:33:43;;;;;;;32.75;29.35;;;;;;;18.23;100.00;101248.88;6223280;22;20011;-68
2023/09/12 07:36:08;;;;;;;32.03;28.73;;;;;;;18.38;100.00;101249.22;6247509;22;20090;-68
2023/09/12 07:38:35;;;;;;;33.22;29.65;;;;;;;18.44;100.00;101246.31;6220432;22;20119;-68
2023/09/12 07:41:02;;;;;;;33.33;29.83;;;;;;;18.71;100.00;101244.38;6246325;22;20012;-68
2023/09/12 07:43:28;;;;;;;32.38;28.95;;;;;;;19.31;100.00;101249.97;6247804;22;20000;-68
2023/09/12 07:46:00;;;;;;;31.13;27.95;;;;;;;19.80;100.00;101254.16;6196166;22;20012;-69
2023/09/12 07:48:25;;;;;;;30.50;27.25;;;;;;;19.81;100.00;101263.81;6221902;22;20083;-69
2023/09/12 07:50:51;;;;;;;29.52;26.58;;;;;;;19.93;100.00;101273.94;6221843;22;20504;-69
2023/09/12 07:53:17;;;;;;;29.30;26.40;;;;;;;19.97;100.00;101270.22;6197602;22;20015;-69
2023/09/12 07:55:46;;;;;;;29.58;26.48;;;;;;;20.70;100.00;101267.81;6246035;22;20098;-69
2023/09/12 07:58:18;;;;;;;28.77;25.88;;;;;;;20.58;100.00;101260.34;6223031;22;20020;-68
2023/09/12 08:00:46;;;;;;;27.85;24.30;;;;;;;20.37;100.00;101260.44;6245604;22;20084;-69
2023/09/12 08:03:11;;;;;;;28.65;25.92;;;;;;;20.60;100.00;101255.81;6245812;22;20034;-69
2023/09/12 08:05:38;;;;;;;30.88;27.70;;;;;;;21.18;100.00;101251.31;6222209;22;20418;-69
2023/09/12 08:08:03;;;;;;;27.30;24.55;;;;;;;21.41;98.81;101250.13;6222465;22;20067;-69
2023/09/12 08:10:29;;;;;;;28.02;25.00;;;;;;;21.77;100.00;101254.53;6246218;22;20023;-68
2023/09/12 08:12:54;;;;;;;27.98;25.20;;;;;;;21.85;97.81;101248.81;6221927;22;20042;-69
2023/09/12 08:15:20;;;;;;;29.25;26.17;;;;;;;22.07;96.79;101251.22;6247301;22;20035;-69
2023/09/12 08:17:45;;;;;;;27.42;24.70;;;;;;;22.41;96.40;101260.94;6196282;22;20057;-69
2023/09/12 08:20:11;;;;;;;26.25;23.65;;;;;;;22.21;95.20;101262.00;6246908;22;20019;-69
2023/09/12 08:22:37;;;;;;;27.50;24.70;;;;;;;22.67;95.07;101267.50;6221423;22;20011;-69
2023/09/12 08:25:03;;;;;;;24.90;22.35;;;;;;;22.80;92.42;101267.69;6247466;22;20082;-69
2023/09/12 08:27:29;;;;;;;27.08;23.52;;;;;;;22.56;90.18;101277.06;6245205;22;20430;-69
2023/09/12 08:29:54;;;;;;;23.77;21.42;;;;;;;23.00;89.99;101281.69;6221108;22;20054;-69
2023/09/12 08:32:20;;;;;;;24.23;21.75;;;;;;;23.27;88.82;101273.06;6243385;22;20015;-69
2023/09/12 08:34:45;;;;;;;22.83;20.38;;;;;;;23.34;87.52;101269.94;6247202;22;20007;-69
2023/09/12 08:37:11;;;;;;;22.27;20.00;;;;;;;23.37;89.21;101276.06;6195848;22;20027;-69
2023/09/12 08:39:43;;;;;;;21.10;19.10;;;;;;;23.44;87.25;101283.63;6245783;22;20010;-69
2023/09/12 08:42:12;;;;;;;22.77;18.88;;;;;;;23.39;86.79;101283.06;6245265;22;20475;-69
2023/09/12 08:44:38;;;;;;;20.50;18.33;;;;;;;23.27;85.56;101300.66;6246825;22;20314;-69
2023/09/12 08:47:05;;;;;;;21.10;17.63;;;;;;;22.84;85.37;101293.28;6243815;22;20008;-69
2023/09/12 08:49:34;;;;;;;18.63;16.83;;;;;;;22.70;86.94;101303.00;6221756;22;20022;-68
2023/09/12 08:52:00;;;;;;;18.88;17.05;;;;;;;22.64;85.94;101302.41;6244876;22;20101;-69
2023/09/12 08:54:25;;;;;;;19.17;17.13;;;;;;;22.68;88.25;101297.72;6196242;22;20007;-69
2023/09/12 08:56:51;;;;;;;21.17;19.08;;;;;;;22.82;88.75;101300.50;6194462;22;20015;-69
2023/09/12 08:59:17;;;;;;;20.20;18.35;;;;;;;23.05;90.01;101301.00;6195455;22;20008;-69
2023/09/12 09:01:44;;;;;;;21.05;18.80;;;;;;;22.99;89.42;101307.56;6221142;22;20031;-68
2023/09/12 09:04:10;;;;;;;21.00;19.00;;;;;;;22.86;88.46;101308.34;6247353;22;20006;-69
2023/09/12 09:06:37;;;;;;;22.63;20.23;;;;;;;22.91;89.17;101303.59;6197270;22;20011;-69
2023/09/12 09:09:08;;;;;;;22.60;20.30;;;;;;;22.95;86.45;101306.00;6247406;22;20004;-69
2023/09/12 09:11:34;;;;;;;23.17;20.70;;;;;;;23.01;88.35;101310.16;6221307;22;20008;-69
2023/09/12 09:14:03;;;;;;;21.67;19.45;;;;;;;22.95;86.76;101315.84;6246155;22;20024;-69
2023/09/12 09:16:28;;;;;;;20.20;18.20;;;;;;;22.66;88.17;101308.50;6246163;22;20011;-69
2023/09/12 09:18:59;;;;;;;19.90;17.90;;;;;;;22.73;88.73;101317.06;6221904;22;20007;-69
2023/09/12 09:21:32;;;;;;;21.42;19.33;;;;;;;22.55;87.56;101307.38;6246950;22;20007;-69
2023/09/12 09:24:07;;;;;;;21.50;19.20;;;;;;;22.92;90.38;101308.88;6246959;22;20039;-69
2023/09/12 09:26:50;;;;;;;20.30;18.30;;;;;;;23.33;87.72;101294.09;6246396;22;20000;-70
2023/09/12 09:29:22;;;;;;;17.98;16.38;;;;;;;23.49;81.71;101276.22;6247494;22;20120;-69
2023/09/12 09:31:50;;;;;;;18.05;16.17;;;;;;;23.48;82.35;101277.16;6245942;22;20012;-69
2023/09/12 09:34:18;;;;;;;18.23;16.42;;;;;;;23.40;82.84;101278.56;6222116;22;20003;-70
2023/09/12 09:36:46;;;;;;;18.17;16.27;;;;;;;23.28;82.70;101275.66;6246757;22;20134;-70
2023/09/12 09:39:13;;;;;;;17.90;16.00;;;;;;;23.52;80.07;101277.84;6246818;22;20117;-70
2023/09/12 09:41:39;;;;;;;19.67;17.70;;;;;;;23.56;81.27;101282.06;6221162;22;20073;-69
2023/09/12 09:44:08;;;;;;;22.80;19.83;;;;;;;23.57;80.54;101285.59;6249063;22;20325;-69
2023/09/12 09:46:36;;;;;;;21.33;19.13;;;;;;;23.47;80.62;101283.44;6247082;22;20057;-69
2023/09/12 09:49:02;;;;;;;20.80;18.88;;;;;;;23.56;78.65;101289.22;6248866;22;20402;-69
2023/09/12 09:51:31;;;;;;;22.20;19.90;;;;;;;23.66;76.22;101285.03;6224088;22;20029;-70
2023/09/12 09:53:58;;;;;;;22.00;19.65;;;;;;;23.84;79.56;101281.25;6248385;22;20077;-70
2023/09/12 09:56:25;;;;;;;21.67;19.58;;;;;;;23.78;79.43;101284.31;6222883;22;20011;-69
2023/09/12 09:58:52;;;;;;;20.17;18.17;;;;;;;23.87;76.87;101281.09;6247983;22;19999;-70
2023/09/12 10:01:21;;;;;;;19.17;17.20;;;;;;;24.07;78.12;101278.16;6248523;22;20095;-69
2023/09/12 10:03:50;;;;;;;17.33;15.73;;;;;;;24.00;75.71;101277.66;6224231;22;20030;-70
2023/09/12 10:06:22;;;;;;;20.30;18.25;;;;;;;24.20;74.74;101274.59;6248634;22;20008;-69
2023/09/12 10:08:52;;;;;;;20.52;18.42;;;;;;;24.03;76.36;101282.81;6222093;22;20020;-69
2023/09/12 10:11:22;;;;;;;21.17;17.88;;;;;;;24.14;76.60;101284.84;6248290;22;20008;-69
2023/09/12 10:13:55;;;;;;;16.73;14.77;;;;;;;24.11;74.35;101283.22;6248546;22;20027;-70
2023/09/12 10:16:32;;;;;;;14.57;13.07;;;;;;;24.26;75.11;101283.22;6244904;22;20317;-69
2023/09/12 10:19:23;;;;;;;17.10;15.20;;;;;;;24.41;74.57;101282.28;6247068;22;20499;-70
2023/09/12 10:22:10;;;;;;;17.42;15.50;;;;;;;24.50;74.53;101284.34;6246913;22;20322;-69
2023/09/12 10:24:36;;;;;;;19.55;16.83;;;;;;;24.53;72.85;101277.94;6248152;22;20007;-69
2023/09/12 10:27:05;;;;;;;15.35;13.63;;;;;;;24.41;71.86;101274.22;6246304;22;20338;-70
2023/09/12 10:29:31;;;;;;;15.00;13.55;;;;;;;24.56;71.77;101275.91;6247559;22;20026;-70
2023/09/12 10:31:57;;;;;;;14.50;12.43;;;;;;;24.68;71.26;101271.63;6247254;22;20010;-69
2023/09/12 10:34:25;;;;;;;14.95;13.40;;;;;;;24.82;73.06;101276.09;6220978;22;20011;-68
2023/09/12 10:36:51;;;;;;;15.05;13.55;;;;;;;24.73;73.83;101272.19;6246186;22;20311;-68
2023/09/12 10:39:19;;;;;;;17.15;13.57;;;;;;;24.85;71.76;101265.16;6245653;22;20029;-68
2023/09/12 10:41:46;;;;;;;15.82;13.15;;;;;;;24.92;71.68;101265.63;6222130;22;20015;-68
2023/09/12 10:44:18;;;;;;;14.75;12.63;;;;;;;24.85;71.20;101262.47;6222314;22;20019;-68
2023/09/12 10:46:46;;;;;;;14.32;12.93;;;;;;;24.93;69.78;101261.16;6220839;22;20008;-68
2023/09/12 10:49:13;;;;;;;14.57;12.43;;;;;;;24.99;70.57;101250.84;6222177;22;20035;-68
2023/09/12 10:51:43;;;;;;;15.65;13.25;;;;;;;24.80;66.67;101256.56;6248253;22;20004;-68
2023/09/12 10:54:13;;;;;;;12.00;9.63;;;;;;;24.84;67.96;101260.78;6221417;22;20065;-68
2023/09/12 10:56:39;;;;;;;10.52;8.63;;;;;;;24.82;65.19;101256.47;6273747;22;20010;-68
2023/09/12 10:59:04;;;;;;;9.32;8.30;;;;;;;24.90;68.23;101260.38;6220992;22;20011;-68
2023/09/12 11:01:31;;;;;;;13.35;11.95;;;;;;;25.05;68.83;101261.16;6244607;22;20012;-68
2023/09/12 11:03:59;;;;;;;14.73;11.75;;;;;;;25.19;70.24;101262.94;6246218;22;20015;-69